Time;durP1;ratioP1;P1;durP2;ratioP2;P2;SDS_P1;SDS_P2;PMS_P1;PMS_P2;Temp;Humidity;BMP_temperature;BMP_pressure;BME280_temperature;BME280_humidity;BME280_pressure;Samples;Min_cycle;Max_cycle;Signal;HPM_P1;HPM_P2
2022/07/19 00:00:12;;;;;;;9.55;4.82;;;14.60;99.90;;;;;;5094286;28;20047;-74
2022/07/19 00:02:40;;;;;;;10.52;4.35;;;14.50;99.90;;;;;;5093956;28;20048;-74
2022/07/19 00:05:09;;;;;;;9.05;4.47;;;14.50;99.90;;;;;;5076335;28;20344;-75
2022/07/19 00:07:37;;;;;;;6.47;3.75;;;14.50;99.90;;;;;;5075806;28;20135;-75
2022/07/19 00:10:09;;;;;;;11.13;3.85;;;14.40;99.90;;;;;;5075845;28;20048;-74
2022/07/19 00:12:36;;;;;;;7.65;3.78;;;14.40;99.90;;;;;;5093769;28;20090;-75
2022/07/19 00:15:05;;;;;;;7.05;3.70;;;14.40;99.90;;;;;;5094258;28;20102;-74
2022/07/19 00:17:33;;;;;;;9.38;3.92;;;14.30;99.90;;;;;;5093669;28;20072;-75
2022/07/19 00:20:00;;;;;;;5.50;3.67;;;14.40;99.90;;;;;;5093782;28;20040;-74
2022/07/19 00:22:28;;;;;;;11.18;6.63;;;14.40;99.90;;;;;;5075401;28;20094;-75
2022/07/19 00:24:55;;;;;;;9.65;4.50;;;14.30;99.90;;;;;;5093866;28;20048;-74
2022/07/19 00:27:24;;;;;;;13.98;6.70;;;14.20;99.90;;;;;;5093767;28;20414;-74
2022/07/19 00:29:51;;;;;;;7.70;4.32;;;14.20;99.90;;;;;;5093643;28;20047;-74
2022/07/19 00:32:18;;;;;;;10.63;6.20;;;14.20;99.90;;;;;;5093610;28;20046;-74
2022/07/19 00:34:45;;;;;;;13.25;7.10;;;14.10;99.90;;;;;;5075609;28;20048;-74
2022/07/19 00:37:13;;;;;;;9.00;3.35;;;14.10;99.90;;;;;;5093671;28;20164;-74
2022/07/19 00:39:40;;;;;;;6.43;3.05;;;14.10;99.90;;;;;;5093391;28;20048;-74
2022/07/19 00:42:08;;;;;;;9.02;3.28;;;14.10;99.90;;;;;;5093625;28;20036;-74
2022/07/19 00:44:36;;;;;;;6.38;3.10;;;14.00;99.90;;;;;;5093203;28;20501;-74
2022/07/19 00:47:06;;;;;;;5.03;3.22;;;14.00;99.90;;;;;;5093420;28;20044;-74
2022/07/19 00:49:33;;;;;;;5.90;3.25;;;14.00;99.90;;;;;;5093257;28;20514;-74
2022/07/19 00:52:02;;;;;;;5.97;3.38;;;13.90;99.90;;;;;;5093448;28;20686;-74
2022/07/19 00:54:31;;;;;;;12.30;3.20;;;13.90;99.90;;;;;;5093189;28;20122;-74
2022/07/19 00:57:01;;;;;;;7.38;3.38;;;13.90;99.90;;;;;;5093260;28;20044;-74
2022/07/19 00:59:29;;;;;;;7.43;2.88;;;13.90;99.90;;;;;;5093224;28;20473;-74
2022/07/19 01:01:59;;;;;;;6.32;3.10;;;13.80;99.90;;;;;;5093822;28;20532;-74
2022/07/19 01:04:28;;;;;;;7.82;3.10;;;13.80;99.90;;;;;;5093211;28;20136;-74
2022/07/19 01:06:56;;;;;;;6.10;2.75;;;13.80;99.90;;;;;;5093417;28;20040;-74
2022/07/19 01:09:23;;;;;;;4.90;2.70;;;13.90;99.90;;;;;;5093412;28;20561;-74
2022/07/19 01:11:51;;;;;;;6.00;3.20;;;13.80;99.90;;;;;;5093131;28;20051;-74
2022/07/19 01:14:18;;;;;;;5.45;2.88;;;13.70;99.90;;;;;;5093140;28;20098;-74
2022/07/19 01:16:46;;;;;;;6.45;3.47;;;13.60;99.90;;;;;;5075217;28;20048;-74
2022/07/19 01:19:15;;;;;;;7.35;2.95;;;13.60;99.90;;;;;;5074988;28;20498;-74
2022/07/19 01:21:44;;;;;;;6.97;3.00;;;13.60;99.90;;;;;;5093207;28;20085;-73
2022/07/19 01:24:11;;;;;;;6.60;2.90;;;13.60;99.90;;;;;;5092738;28;20740;-74
2022/07/19 01:26:38;;;;;;;6.07;3.10;;;13.60;99.90;;;;;;5074995;28;20076;-74
2022/07/19 01:29:05;;;;;;;5.38;2.78;;;13.50;99.90;;;;;;5093483;28;20060;-74
2022/07/19 01:31:33;;;;;;;5.28;3.05;;;13.50;99.90;;;;;;5093600;28;20478;-74
2022/07/19 01:34:00;;;;;;;5.60;2.83;;;13.50;99.90;;;;;;5075166;28;20054;-74
2022/07/19 01:36:27;;;;;;;7.75;3.17;;;13.40;99.90;;;;;;5079155;28;20094;-74
2022/07/19 01:38:56;;;;;;;7.45;3.60;;;13.40;99.90;;;;;;5078661;28;20051;-74
2022/07/19 01:41:23;;;;;;;6.93;3.13;;;13.40;99.90;;;;;;5096890;28;20059;-74
2022/07/19 01:43:50;;;;;;;5.78;2.92;;;13.30;99.90;;;;;;5096852;28;20062;-74
2022/07/19 01:46:18;;;;;;;5.38;3.45;;;13.30;99.90;;;;;;5078683;28;20553;-74
2022/07/19 01:48:45;;;;;;;7.40;3.10;;;13.20;99.90;;;;;;5096756;28;20098;-74
2022/07/19 01:51:12;;;;;;;4.90;3.10;;;13.20;99.90;;;;;;5096412;28;20040;-75
2022/07/19 01:53:40;;;;;;;4.60;3.15;;;13.20;99.90;;;;;;5096583;28;20040;-74
2022/07/19 01:56:09;;;;;;;6.18;3.20;;;13.20;99.90;;;;;;5096885;28;20043;-73
2022/07/19 01:58:36;;;;;;;5.20;3.13;;;13.10;99.90;;;;;;5096544;28;20048;-73
2022/07/19 02:01:04;;;;;;;4.95;3.05;;;13.10;99.90;;;;;;5096906;28;20044;-73
2022/07/19 02:03:31;;;;;;;5.25;3.28;;;13.00;99.90;;;;;;5096719;28;20101;-73
2022/07/19 02:05:58;;;;;;;6.75;3.05;;;13.00;99.90;;;;;;5096579;28;20054;-73
2022/07/19 02:08:26;;;;;;;5.05;3.33;;;12.90;99.90;;;;;;5096587;28;20093;-73
2022/07/19 02:10:53;;;;;;;6.57;2.80;;;12.90;99.90;;;;;;5078048;28;20506;-73
2022/07/19 02:13:21;;;;;;;7.22;3.25;;;12.90;99.90;;;;;;5096125;28;20051;-74
2022/07/19 02:15:49;;;;;;;7.10;3.13;;;12.80;99.90;;;;;;5096687;28;20065;-73
2022/07/19 02:18:16;;;;;;;6.53;3.55;;;12.80;99.90;;;;;;5096116;28;20556;-73
2022/07/19 02:20:44;;;;;;;6.88;3.30;;;12.80;99.90;;;;;;5078179;28;20101;-73
2022/07/19 02:23:11;;;;;;;7.07;3.53;;;12.90;99.90;;;;;;5096061;28;20066;-73
2022/07/19 02:25:38;;;;;;;4.75;3.10;;;12.80;99.90;;;;;;5096507;28;20040;-73
2022/07/19 02:28:06;;;;;;;5.95;3.25;;;12.80;99.90;;;;;;5096603;28;20036;-73
2022/07/19 02:30:34;;;;;;;4.88;3.35;;;12.80;99.90;;;;;;5078184;28;20138;-73
2022/07/19 02:33:02;;;;;;;6.18;3.40;;;12.80;99.90;;;;;;5095723;28;20082;-73
2022/07/19 02:35:29;;;;;;;7.05;2.88;;;12.80;99.90;;;;;;5078016;28;20074;-73
2022/07/19 02:37:56;;;;;;;6.70;3.25;;;12.70;99.90;;;;;;5096528;28;20104;-73
2022/07/19 02:40:24;;;;;;;7.03;3.47;;;12.70;99.90;;;;;;5077831;28;20052;-73
2022/07/19 02:42:51;;;;;;;5.35;3.03;;;12.70;99.90;;;;;;5095772;28;20391;-73
2022/07/19 02:45:18;;;;;;;8.07;3.30;;;12.60;99.90;;;;;;5095798;28;20103;-74
2022/07/19 02:47:48;;;;;;;6.50;3.15;;;12.70;99.90;;;;;;5095623;28;20048;-73
2022/07/19 02:50:16;;;;;;;9.00;2.85;;;12.60;99.90;;;;;;5097217;28;20052;-73
2022/07/19 02:52:43;;;;;;;6.35;3.20;;;12.50;99.90;;;;;;5078444;28;20063;-73
2022/07/19 02:55:11;;;;;;;4.47;2.60;;;12.50;99.90;;;;;;5096586;28;20040;-73
2022/07/19 02:57:38;;;;;;;6.03;3.45;;;12.50;99.90;;;;;;5095650;28;20044;-74
2022/07/19 03:00:08;;;;;;;8.98;3.20;;;12.50;99.90;;;;;;5095557;28;20414;-73
2022/07/19 03:02:35;;;;;;;5.72;2.95;;;12.50;99.90;;;;;;5076919;28;20052;-73
2022/07/19 03:05:04;;;;;;;5.72;3.35;;;12.50;99.90;;;;;;5077230;28;20097;-74
2022/07/19 03:07:31;;;;;;;7.63;3.33;;;12.40;99.90;;;;;;5095447;28;20036;-73
2022/07/19 03:09:58;;;;;;;11.60;3.35;;;12.40;99.90;;;;;;5095263;28;20044;-73
2022/07/19 03:12:26;;;;;;;8.85;3.47;;;12.40;99.90;;;;;;5094868;28;20044;-74
2022/07/19 03:14:53;;;;;;;9.85;3.60;;;12.40;99.90;;;;;;5095180;28;20048;-73
2022/07/19 03:17:20;;;;;;;7.07;3.30;;;12.30;99.90;;;;;;5095138;28;20123;-73
2022/07/19 03:19:48;;;;;;;6.82;3.58;;;12.30;99.90;;;;;;5095088;28;20070;-73
2022/07/19 03:22:16;;;;;;;8.27;3.47;;;12.30;99.90;;;;;;5095007;28;20479;-73
2022/07/19 03:24:44;;;;;;;7.00;3.50;;;12.30;99.90;;;;;;5094956;28;20052;-73
2022/07/19 03:27:11;;;;;;;6.63;3.08;;;12.30;99.90;;;;;;5094864;28;20094;-73
2022/07/19 03:29:38;;;;;;;7.20;3.60;;;12.30;99.90;;;;;;5077051;28;20048;-73
2022/07/19 03:32:06;;;;;;;8.63;3.60;;;12.30;99.90;;;;;;5076604;28;20075;-73
2022/07/19 03:34:33;;;;;;;8.57;3.60;;;12.30;99.90;;;;;;5094707;28;20479;-73
2022/07/19 03:37:00;;;;;;;6.75;3.33;;;12.30;99.90;;;;;;5094657;28;20043;-73
2022/07/19 03:39:29;;;;;;;7.93;3.28;;;12.40;99.90;;;;;;5094615;28;20531;-73
2022/07/19 03:41:57;;;;;;;8.50;3.50;;;12.40;99.90;;;;;;5094934;28;20475;-73
2022/07/19 03:44:24;;;;;;;7.82;3.50;;;12.40;99.90;;;;;;5094337;28;20039;-73
2022/07/19 03:46:51;;;;;;;6.47;4.07;;;12.40;99.90;;;;;;5094994;28;20122;-73
2022/07/19 03:49:44;;;;;;;7.18;4.45;;;12.40;99.90;;;;;;5140188;22;20043;-76
2022/07/19 03:52:38;;;;;;;9.25;4.82;;;12.40;99.90;;;;;;5107086;28;20067;-76
2022/07/19 03:55:31;;;;;;;9.52;5.32;;;12.40;99.90;;;;;;5096861;28;20047;-77
2022/07/19 03:58:14;;;;;;;9.50;5.18;;;12.60;99.90;;;;;;5115054;28;20533;-75
2022/07/19 04:00:51;;;;;;;10.85;5.68;;;12.60;99.90;;;;;;5115858;28;20048;-76
2022/07/19 04:03:27;;;;;;;7.38;5.22;;;13.10;99.90;;;;;;5115300;28;20502;-75
2022/07/19 04:06:16;;;;;;;9.60;4.32;;;14.10;99.90;;;;;;5114680;28;20540;-77
2022/07/19 04:08:43;;;;;;;11.85;3.95;;;15.10;99.90;;;;;;5097127;28;20047;-76
2022/07/19 04:11:12;;;;;;;8.32;4.05;;;15.80;99.90;;;;;;5115616;28;20130;-76
2022/07/19 04:13:39;;;;;;;8.93;3.80;;;16.50;99.90;;;;;;5115297;28;20088;-76
2022/07/19 04:16:07;;;;;;;12.55;4.45;;;17.20;99.90;;;;;;5098271;28;20047;-76
2022/07/19 04:18:34;;;;;;;9.40;4.05;;;17.30;99.90;;;;;;5117798;28;20047;-76
2022/07/19 04:21:01;;;;;;;10.15;3.65;;;17.70;99.90;;;;;;5117802;28;20123;-76
2022/07/19 04:23:28;;;;;;;9.85;3.47;;;18.50;99.90;;;;;;5097125;28;20135;-76
2022/07/19 04:25:56;;;;;;;10.63;3.72;;;19.20;99.90;;;;;;5097054;28;20081;-76
2022/07/19 04:28:25;;;;;;;7.15;3.47;;;19.80;99.90;;;;;;5115885;28;20152;-76
2022/07/19 04:30:52;;;;;;;11.85;3.83;;;20.30;99.90;;;;;;5115344;28;20054;-77
2022/07/19 04:33:20;;;;;;;8.02;3.83;;;20.60;99.90;;;;;;5114548;28;20044;-76
2022/07/19 04:35:47;;;;;;;6.60;3.60;;;20.80;99.90;;;;;;5114427;28;20074;-76
2022/07/19 04:38:15;;;;;;;8.07;3.63;;;21.60;99.90;;;;;;5114137;28;20043;-76
2022/07/19 04:40:42;;;;;;;8.07;3.72;;;21.60;99.90;;;;;;5114852;28;20047;-76
2022/07/19 04:43:09;;;;;;;10.95;3.95;;;22.10;99.90;;;;;;5096291;28;20131;-76
2022/07/19 04:45:39;;;;;;;14.38;3.53;;;22.30;99.90;;;;;;5114607;28;20379;-77
2022/07/19 04:48:06;;;;;;;10.35;4.18;;;22.20;99.90;;;;;;5114547;28;20043;-76
2022/07/19 04:50:34;;;;;;;7.25;3.20;;;22.50;99.90;;;;;;5114293;28;20059;-76
2022/07/19 04:53:01;;;;;;;8.10;3.42;;;23.30;99.90;;;;;;5114282;28;20027;-75
2022/07/19 04:55:28;;;;;;;6.05;3.10;;;23.20;99.90;;;;;;5096752;28;20059;-75
2022/07/19 04:57:56;;;;;;;14.45;3.42;;;22.90;99.90;;;;;;5114678;28;20044;-76
2022/07/19 05:00:23;;;;;;;9.52;3.45;;;23.20;99.90;;;;;;5115409;28;20387;-77
2022/07/19 05:02:54;;;;;;;9.63;3.42;;;23.00;99.90;;;;;;5114819;28;20085;-76
2022/07/19 05:05:21;;;;;;;9.13;3.35;;;23.20;99.90;;;;;;5114630;28;20093;-76
2022/07/19 05:07:49;;;;;;;9.90;3.75;;;22.40;99.90;;;;;;5096306;28;20121;-77
2022/07/19 05:10:16;;;;;;;6.63;3.22;;;21.80;99.90;;;;;;5117020;28;20047;-76
2022/07/19 05:12:44;;;;;;;7.20;4.13;;;21.90;99.90;;;;;;5119269;28;20592;-76
2022/07/19 05:15:12;;;;;;;6.03;3.55;;;22.20;99.90;;;;;;5119460;28;20050;-77
2022/07/19 05:17:39;;;;;;;7.63;4.68;;;23.00;99.90;;;;;;5100271;28;20101;-76
2022/07/19 05:20:10;;;;;;;11.32;5.55;;;23.50;99.90;;;;;;5118737;28;20404;-76
2022/07/19 05:22:37;;;;;;;12.73;3.88;;;23.70;99.90;;;;;;5118390;28;20440;-78
2022/07/19 05:25:05;;;;;;;8.30;4.75;;;23.80;99.90;;;;;;5119149;28;20459;-75
2022/07/19 05:27:33;;;;;;;10.70;4.85;;;24.80;99.90;;;;;;5119089;28;20056;-77
2022/07/19 05:30:00;;;;;;;8.73;3.97;;;25.40;99.90;;;;;;5129292;28;20498;-77
2022/07/19 05:32:28;;;;;;;11.63;3.88;;;25.60;99.90;;;;;;5131750;28;20075;-75
2022/07/19 05:34:55;;;;;;;5.13;3.38;;;26.00;99.90;;;;;;5114188;28;20044;-77
2022/07/19 05:37:24;;;;;;;20.17;5.28;;;26.00;99.90;;;;;;5131768;28;20103;-77
2022/07/19 05:39:51;;;;;;;7.97;5.03;;;26.00;99.90;;;;;;5126536;28;20096;-78
2022/07/19 05:42:18;;;;;;;10.95;5.10;;;26.30;99.90;;;;;;5137579;28;20085;-77
2022/07/19 05:44:45;;;;;;;8.60;3.85;;;26.40;99.90;;;;;;5121062;28;20051;-78
2022/07/19 05:47:13;;;;;;;14.07;4.65;;;26.30;99.90;;;;;;5122613;28;20051;-76
2022/07/19 05:49:40;;;;;;;8.95;4.20;;;26.00;99.90;;;;;;5102185;28;20048;-77
2022/07/19 05:52:07;;;;;;;14.10;4.07;;;25.80;99.90;;;;;;5111395;28;20044;-77
2022/07/19 05:54:37;;;;;;;9.52;4.30;;;25.70;99.90;;;;;;5107270;28;20125;-78
2022/07/19 05:57:04;;;;;;;6.10;3.38;;;25.50;99.90;;;;;;5098604;28;20051;-78
2022/07/19 05:59:35;;;;;;;10.65;3.90;;;25.10;99.90;;;;;;5107517;28;20050;-78
2022/07/19 06:02:02;;;;;;;13.70;4.30;;;24.40;99.90;;;;;;5113636;28;20036;-76
2022/07/19 06:04:29;;;;;;;10.48;3.67;;;23.90;99.90;;;;;;5119144;28;20109;-75
2022/07/19 06:06:57;;;;;;;10.60;4.18;;;23.50;99.90;;;;;;5113345;28;20490;-76
2022/07/19 06:09:24;;;;;;;6.95;3.60;;;23.20;99.90;;;;;;5098750;28;20048;-77
2022/07/19 06:11:53;;;;;;;9.77;3.25;;;23.50;99.90;;;;;;5099851;28;20044;-76
2022/07/19 06:14:20;;;;;;;9.73;4.07;;;23.70;99.90;;;;;;5099259;28;20405;-76
2022/07/19 06:16:47;;;;;;;11.82;3.85;;;23.30;99.90;;;;;;5098022;28;20047;-76
2022/07/19 06:19:15;;;;;;;6.90;3.65;;;22.90;99.90;;;;;;5095929;28;20056;-76
2022/07/19 06:21:42;;;;;;;8.00;3.45;;;22.70;99.90;;;;;;5096698;28;20123;-76
2022/07/19 06:24:09;;;;;;;8.10;3.25;;;22.40;99.90;;;;;;5096629;28;20044;-76
2022/07/19 06:26:37;;;;;;;10.70;3.40;;;22.20;99.90;;;;;;5097611;28;20036;-76
2022/07/19 06:29:06;;;;;;;10.45;4.60;;;22.50;99.90;;;;;;5096666;28;20047;-75
2022/07/19 06:31:34;;;;;;;10.95;3.30;;;22.80;99.90;;;;;;5097641;28;20146;-78
2022/07/19 06:34:01;;;;;;;8.15;3.30;;;23.10;99.90;;;;;;5095607;28;20097;-77
2022/07/19 06:36:28;;;;;;;8.85;4.22;;;23.70;99.90;;;;;;5095419;28;20462;-76
2022/07/19 06:38:56;;;;;;;18.85;5.95;;;23.90;99.90;;;;;;5097935;28;20056;-76
2022/07/19 06:41:23;;;;;;;15.60;7.53;;;24.00;99.90;;;;;;5095965;28;20400;-77
2022/07/19 06:43:50;;;;;;;14.73;8.20;;;24.40;99.90;;;;;;5096785;28;20093;-76
2022/07/19 06:46:19;;;;;;;17.75;10.85;;;24.50;99.90;;;;;;5096538;28;20040;-76
2022/07/19 06:48:46;;;;;;;25.95;14.40;;;24.70;99.90;;;;;;5099706;28;20553;-77
2022/07/19 06:51:14;;;;;;;28.58;18.08;;;24.70;99.90;;;;;;5102061;28;20043;-76
2022/07/19 06:53:41;;;;;;;53.00;35.97;;;24.80;99.90;;;;;;5102610;28;20089;-76
2022/07/19 06:56:08;;;;;;;137.25;101.63;;;24.90;99.90;;;;;;5099169;28;20453;-77
2022/07/19 06:58:36;;;;;;;97.28;70.85;;;24.80;99.90;;;;;;5099861;28;20036;-77
2022/07/19 07:01:04;;;;;;;75.05;53.95;;;24.90;99.90;;;;;;5102963;28;20051;-77
2022/07/19 07:03:32;;;;;;;77.30;53.90;;;25.10;99.90;;;;;;5103814;28;20063;-76
2022/07/19 07:06:00;;;;;;;75.40;55.90;;;25.50;99.90;;;;;;5102791;28;20060;-76
2022/07/19 07:08:27;;;;;;;59.15;44.60;;;25.30;99.90;;;;;;5099523;28;20051;-76
2022/07/19 07:10:54;;;;;;;71.65;53.47;;;25.20;99.90;;;;;;5097310;28;20044;-77
2022/07/19 07:13:22;;;;;;;67.68;49.85;;;25.10;99.90;;;;;;5097142;28;20044;-78
2022/07/19 07:15:49;;;;;;;63.22;47.33;;;25.40;99.90;;;;;;5097432;28;20113;-76
2022/07/19 07:18:16;;;;;;;65.82;50.22;;;25.60;99.90;;;;;;5097518;28;20059;-77
2022/07/19 07:20:45;;;;;;;75.13;57.65;;;25.90;99.90;;;;;;5098720;28;20449;-78
2022/07/19 07:23:12;;;;;;;78.50;56.67;;;26.30;99.90;;;;;;5097171;28;20036;-77
2022/07/19 07:25:40;;;;;;;64.53;45.55;;;26.70;99.90;;;;;;5097561;28;20036;-76
2022/07/19 07:28:07;;;;;;;54.15;37.92;;;26.80;99.90;;;;;;5097157;28;20047;-76
2022/07/19 07:30:34;;;;;;;52.65;37.70;;;26.90;99.90;;;;;;5097327;28;20071;-75
2022/07/19 07:33:02;;;;;;;46.85;33.72;;;27.00;99.90;;;;;;5095934;28;20047;-78
2022/07/19 07:35:29;;;;;;;43.58;31.40;;;27.30;99.90;;;;;;5095709;28;20056;-77
2022/07/19 07:37:58;;;;;;;40.33;29.23;;;27.40;99.90;;;;;;5095949;28;20044;-77
2022/07/19 07:40:25;;;;;;;47.47;31.17;;;27.50;99.90;;;;;;5109141;28;20115;-78
2022/07/19 07:42:52;;;;;;;41.72;30.85;;;27.70;99.90;;;;;;5105434;28;20089;-75
2022/07/19 07:45:20;;;;;;;44.70;30.65;;;27.70;99.90;;;;;;5096530;28;20036;-76
2022/07/19 07:47:47;;;;;;;39.70;27.63;;;27.60;99.90;;;;;;5097108;28;20052;-76
2022/07/19 07:50:14;;;;;;;43.63;29.13;;;27.70;99.90;;;;;;5113326;28;20535;-77
2022/07/19 07:52:42;;;;;;;40.22;27.95;;;27.80;99.90;;;;;;5119305;28;20044;-78
2022/07/19 07:55:11;;;;;;;39.42;24.48;;;27.80;99.90;;;;;;5116831;28;20044;-77
2022/07/19 07:57:38;;;;;;;33.60;23.13;;;28.00;99.90;;;;;;5117152;28;20087;-77
2022/07/19 08:00:08;;;;;;;31.05;20.95;;;27.90;99.90;;;;;;5117115;28;20051;-77
2022/07/19 08:02:40;;;;;;;29.67;19.80;;;27.80;99.90;;;;;;5122151;28;20133;-77
2022/07/19 08:05:08;;;;;;;28.08;19.48;;;27.80;99.90;;;;;;5130611;28;20088;-78
2022/07/19 08:07:36;;;;;;;26.27;17.83;;;27.70;99.90;;;;;;5130157;28;20047;-78
2022/07/19 08:10:03;;;;;;;32.95;21.65;;;27.70;99.90;;;;;;5123132;28;20065;-77
2022/07/19 08:12:32;;;;;;;32.42;17.92;;;27.90;99.90;;;;;;5119762;28;20089;-76
2022/07/19 08:15:00;;;;;;;24.52;16.38;;;27.80;99.90;;;;;;5121227;28;20063;-77
2022/07/19 08:17:27;;;;;;;24.77;16.10;;;27.60;99.90;;;;;;5119909;28;20043;-77
2022/07/19 08:19:54;;;;;;;20.10;13.70;;;27.60;99.90;;;;;;5118760;28;20100;-77
2022/07/19 08:22:22;;;;;;;16.92;12.32;;;27.60;99.90;;;;;;5118872;28;20104;-78
2022/07/19 08:24:49;;;;;;;21.92;13.70;;;27.40;99.90;;;;;;5119572;28;20095;-76
2022/07/19 08:27:16;;;;;;;23.20;14.05;;;27.50;99.90;;;;;;5119358;28;20071;-77
2022/07/19 08:29:45;;;;;;;26.40;15.23;;;27.40;99.90;;;;;;5117774;28;20043;-75
2022/07/19 08:32:13;;;;;;;20.23;11.80;;;27.60;99.90;;;;;;5118103;28;20091;-77
2022/07/19 08:34:40;;;;;;;21.23;13.07;;;27.70;99.90;;;;;;5116623;28;20084;-76
2022/07/19 08:37:07;;;;;;;17.75;12.43;;;27.60;99.90;;;;;;5116375;28;20047;-78
2022/07/19 08:39:35;;;;;;;17.85;9.07;;;27.60;99.90;;;;;;5116425;28;20051;-77
2022/07/19 08:42:02;;;;;;;11.43;8.70;;;27.60;99.90;;;;;;5117622;28;20035;-77
2022/07/19 08:44:30;;;;;;;11.73;8.93;;;27.80;99.90;;;;;;5116111;28;20035;-77
2022/07/19 08:47:01;;;;;;;18.90;10.20;;;27.70;99.90;;;;;;5116215;28;20044;-76
2022/07/19 08:49:28;;;;;;;15.88;8.57;;;27.70;99.90;;;;;;5120076;28;20105;-75
2022/07/19 08:51:56;;;;;;;12.48;8.30;;;27.80;99.90;;;;;;5115662;28;20052;-78
2022/07/19 08:54:23;;;;;;;12.70;7.70;;;28.10;99.90;;;;;;5115812;28;20123;-76
2022/07/19 08:59:35;;;;;;;14.95;9.35;;;28.30;99.90;;;;;;5116370;28;20044;-77
2022/07/19 09:02:04;;;;;;;21.27;9.68;;;28.50;99.90;;;;;;5115853;28;20040;-80
2022/07/19 09:04:31;;;;;;;18.83;9.60;;;28.60;99.90;;;;;;5096984;28;20039;-78
2022/07/19 09:07:00;;;;;;;19.15;8.00;;;28.60;99.90;;;;;;5115614;28;20047;-76
2022/07/19 09:09:29;;;;;;;12.50;6.93;;;28.80;99.90;;;;;;5116300;28;20043;-77
2022/07/19 09:11:58;;;;;;;9.35;6.00;;;29.10;99.90;;;;;;5116084;28;20073;-77
2022/07/19 09:14:27;;;;;;;18.75;13.10;;;29.20;99.90;;;;;;5115152;28;20040;-77
2022/07/19 09:17:00;;;;;;;12.45;7.80;;;29.30;99.90;;;;;;5115439;28;20046;-76
2022/07/19 09:19:31;;;;;;;14.55;8.02;;;29.40;99.90;;;;;;5098434;28;20073;-77
2022/07/19 09:22:01;;;;;;;13.00;7.82;;;29.40;99.90;;;;;;5116832;28;20048;-77
2022/07/19 09:24:31;;;;;;;14.07;9.57;;;29.40;99.90;;;;;;5115700;28;20119;-77
2022/07/19 09:27:01;;;;;;;14.05;7.15;;;29.50;99.90;;;;;;5116259;28;20443;-76
2022/07/19 09:29:29;;;;;;;8.85;4.82;;;29.50;99.90;;;;;;5116008;28;20505;-76
2022/07/19 09:32:11;;;;;;;9.57;5.10;;;29.30;99.90;;;;;;5115816;28;20151;-76
2022/07/19 09:34:42;;;;;;;11.13;6.40;;;29.20;99.90;;;;;;5115785;28;20092;-77
2022/07/19 09:37:18;;;;;;;9.07;5.25;;;29.40;99.90;;;;;;5114657;28;20044;-78
2022/07/19 09:39:47;;;;;;;9.02;5.25;;;29.50;99.90;;;;;;5117719;28;20043;-76
2022/07/19 09:42:17;;;;;;;6.60;5.00;;;29.50;99.90;;;;;;5115609;28;20502;-77
2022/07/19 09:44:45;;;;;;;7.30;3.85;;;29.60;99.90;;;;;;5115392;28;20574;-79
2022/07/19 09:47:13;;;;;;;10.40;3.75;;;29.40;99.90;;;;;;5119117;28;20100;-76
2022/07/19 09:49:42;;;;;;;7.22;5.28;;;29.20;99.90;;;;;;5125016;28;20066;-77
2022/07/19 09:52:10;;;;;;;7.40;4.10;;;29.10;99.90;;;;;;5121417;28;20069;-77
2022/07/19 09:54:40;;;;;;;10.15;5.20;;;29.00;99.90;;;;;;5117382;28;20445;-76
2022/07/19 09:57:09;;;;;;;7.95;4.75;;;29.00;99.90;;;;;;5100495;28;20516;-76
2022/07/19 09:59:44;;;;;;;11.38;4.78;;;29.20;99.90;;;;;;5119928;28;20057;-76
2022/07/19 10:02:13;;;;;;;5.63;4.10;;;29.40;99.90;;;;;;5118244;28;20122;-76
2022/07/19 10:04:40;;;;;;;8.60;3.95;;;29.20;99.90;;;;;;5118384;28;20577;-77
2022/07/19 10:07:09;;;;;;;7.07;4.13;;;29.20;99.90;;;;;;5118417;28;20052;-75
2022/07/19 10:09:37;;;;;;;7.03;5.18;;;29.10;99.90;;;;;;5118513;28;20048;-76
2022/07/19 10:12:05;;;;;;;16.27;10.82;;;29.20;99.90;;;;;;5117846;28;20116;-76
2022/07/19 10:14:32;;;;;;;15.70;8.85;;;29.40;99.90;;;;;;5118167;28;20085;-77
2022/07/19 10:17:12;;;;;;;19.25;9.48;;;29.60;99.90;;;;;;5119205;28;20039;-77
2022/07/19 10:19:42;;;;;;;6.53;3.60;;;29.80;99.90;;;;;;5119339;28;20065;-77
2022/07/19 10:22:13;;;;;;;6.22;2.80;;;30.00;99.90;;;;;;5119784;28;20040;-76
2022/07/19 10:24:45;;;;;;;6.68;3.05;;;29.90;99.90;;;;;;5119275;28;20043;-77
2022/07/19 10:27:13;;;;;;;6.72;3.60;;;29.90;99.90;;;;;;5099084;28;20048;-76
2022/07/19 10:29:43;;;;;;;6.43;3.63;;;29.80;99.90;;;;;;5117726;28;20476;-78
2022/07/19 10:32:11;;;;;;;7.60;3.10;;;29.80;99.90;;;;;;5117930;28;20402;-77
2022/07/19 10:34:39;;;;;;;5.82;3.80;;;29.70;99.90;;;;;;5100523;28;20109;-78
2022/07/19 10:37:07;;;;;;;5.63;2.88;;;29.40;99.90;;;;;;5118319;28;20104;-76
2022/07/19 10:39:38;;;;;;;7.18;2.75;;;29.60;99.90;;;;;;5117662;28;20044;-76
2022/07/19 10:42:14;;;;;;;7.88;2.75;;;29.80;99.90;;;;;;5117931;28;20039;-78
2022/07/19 10:45:13;;;;;;;6.00;2.08;;;29.60;99.90;;;;;;5099538;28;20047;-75
2022/07/19 10:48:10;;;;;;;8.07;2.67;;;29.20;99.90;;;;;;5035705;28;20417;-77
2022/07/19 10:51:02;;;;;;;4.72;2.60;;;29.20;99.90;;;;;;5116495;28;20502;-77
2022/07/19 10:53:59;;;;;;;5.93;2.55;;;29.40;99.90;;;;;;5101197;28;20051;-75
2022/07/19 10:56:34;;;;;;;8.20;2.42;;;29.60;99.90;;;;;;5118216;28;20073;-76
2022/07/19 10:59:05;;;;;;;3.58;2.17;;;29.50;99.90;;;;;;5118188;28;20077;-77
2022/07/19 11:01:34;;;;;;;4.10;2.42;;;29.40;99.90;;;;;;5117866;28;20048;-78
2022/07/19 11:04:28;;;;;;;3.60;2.45;;;29.20;99.90;;;;;;5117618;28;20043;-77
2022/07/19 11:07:19;;;;;;;3.58;2.05;;;29.00;99.90;;;;;;5117049;28;20040;-77
2022/07/19 11:09:49;;;;;;;4.13;2.42;;;29.00;99.90;;;;;;5120600;28;20063;-76
2022/07/19 11:12:27;;;;;;;5.78;2.40;;;28.90;99.90;;;;;;5122297;28;20043;-76
2022/07/19 11:14:54;;;;;;;3.97;1.92;;;28.70;99.90;;;;;;5120372;28;20032;-76
2022/07/19 11:17:22;;;;;;;5.68;3.08;;;28.60;99.90;;;;;;5119964;28;20051;-76
2022/07/19 11:20:10;;;;;;;7.35;2.40;;;28.90;99.90;;;;;;5118293;28;20051;-76
2022/07/19 11:22:40;;;;;;;6.88;1.92;;;29.10;99.90;;;;;;5122487;28;20044;-76
2022/07/19 11:25:09;;;;;;;4.25;2.58;;;29.20;99.90;;;;;;5119759;28;20048;-77
2022/07/19 11:27:45;;;;;;;4.57;2.80;;;29.30;99.90;;;;;;5119785;28;20043;-78
2022/07/19 11:30:14;;;;;;;6.43;2.35;;;29.40;99.90;;;;;;5120093;28;20051;-76
2022/07/19 11:36:05;;;;;;;4.00;2.08;;;29.30;99.90;;;;;;5095318;28;20044;-79
2022/07/19 11:38:38;;;;;;;3.90;2.00;;;29.40;99.90;;;;;;5117428;28;20089;-76
2022/07/19 11:41:09;;;;;;;7.68;2.00;;;29.30;99.90;;;;;;5118886;28;20048;-76
2022/07/19 11:43:38;;;;;;;7.00;1.70;;;29.30;99.90;;;;;;5117664;28;20101;-77
2022/07/19 11:46:06;;;;;;;3.28;1.58;;;29.20;99.90;;;;;;5099120;28;20047;-76
2022/07/19 11:48:33;;;;;;;3.42;1.77;;;29.20;99.90;;;;;;5116848;28;20039;-78
2022/07/19 11:51:02;;;;;;;3.88;1.80;;;29.10;99.90;;;;;;5117885;28;20040;-77
2022/07/19 11:53:34;;;;;;;3.30;1.83;;;29.00;99.90;;;;;;5117398;28;20065;-76
2022/07/19 11:56:02;;;;;;;4.20;2.42;;;29.00;99.90;;;;;;5118365;28;20092;-76
2022/07/19 11:58:31;;;;;;;5.55;2.63;;;29.00;99.90;;;;;;5098594;28;20120;-77
2022/07/19 12:01:05;;;;;;;6.72;2.08;;;28.90;99.90;;;;;;5117502;28;20083;-78
2022/07/19 12:03:33;;;;;;;6.32;2.78;;;28.80;99.90;;;;;;5116667;28;20035;-77
2022/07/19 12:06:02;;;;;;;4.70;1.80;;;28.90;99.90;;;;;;5098450;28;20043;-76
2022/07/19 12:08:42;;;;;;;3.03;2.05;;;29.00;99.90;;;;;;5116837;28;20058;-77
2022/07/19 12:11:23;;;;;;;2.33;1.80;;;29.00;99.90;;;;;;5116351;28;20036;-78
2022/07/19 12:13:52;;;;;;;5.00;2.08;;;29.10;99.90;;;;;;5118307;28;20050;-78
2022/07/19 12:16:21;;;;;;;3.70;2.00;;;29.10;99.90;;;;;;5131570;28;20494;-78
2022/07/19 12:18:52;;;;;;;6.63;2.00;;;29.20;99.90;;;;;;5131336;28;20043;-77
2022/07/19 12:21:25;;;;;;;6.45;2.17;;;29.20;99.90;;;;;;5130864;28;20077;-78
2022/07/19 12:24:14;;;;;;;6.90;3.50;;;29.10;99.90;;;;;;5129164;28;20039;-77
2022/07/19 12:26:43;;;;;;;3.95;2.50;;;29.20;99.90;;;;;;5116143;28;20048;-77
2022/07/19 12:29:29;;;;;;;7.32;2.45;;;29.40;99.90;;;;;;5116076;28;20070;-78
2022/07/19 12:32:00;;;;;;;3.58;2.15;;;29.40;99.90;;;;;;5116733;28;20101;-77
2022/07/19 12:34:28;;;;;;;9.35;3.78;;;29.50;99.90;;;;;;5115928;28;20067;-77
2022/07/19 12:36:59;;;;;;;4.38;2.50;;;29.60;99.90;;;;;;5118248;28;20374;-77
2022/07/19 12:39:29;;;;;;;4.93;2.20;;;29.40;99.90;;;;;;5117108;28;20063;-76
2022/07/19 12:42:02;;;;;;;5.43;3.03;;;29.30;99.90;;;;;;5115797;28;20044;-77
2022/07/19 12:44:30;;;;;;;4.00;1.70;;;29.30;99.90;;;;;;5115752;28;20043;-77
2022/07/19 12:46:59;;;;;;;5.90;3.40;;;29.40;99.90;;;;;;5136617;28;20044;-78
2022/07/19 12:49:27;;;;;;;12.15;4.95;;;29.30;99.90;;;;;;5115733;28;20055;-77
2022/07/19 12:51:54;;;;;;;10.48;7.45;;;29.30;99.90;;;;;;5110354;28;20036;-78
2022/07/19 12:54:21;;;;;;;10.52;5.55;;;29.40;99.90;;;;;;5095257;28;20043;-77
2022/07/19 12:56:49;;;;;;;7.25;3.72;;;29.40;99.90;;;;;;5095126;28;20056;-76